»·PEaware :: N921VN KPHX-P20

N921VN :: KPHX-P20

FLIGHT INFORMATION

Flight Status: Arrived
Operator: Privately registered:
United States
More flights under this callsign
Pilot: Kevin M. (7)
Aircraft: BEECH AIRCRAFT BARON
(BE58)
More flights by this aircraft type
Origin: KPHX Phoenix Sky Harbor Intl
United States
Destination: P20 Avi Suquilla
United States
More flights between these airports :: More routes between these airports
Route: +PXR V16 BLH V135 PKE
File this flight plan on PilotEdge
Remarks: alphabet challenge
Altitude:
(Current/Filed)
6,000ft
Speed:
(Current/Filed)
140kts
Departed: 28-Oct-20 11:06 AM
Arrived: 28-Oct-20 11:49 AM
Distance/Time
Traveled:
121nm/0:43
Distance/Time
To Go:
Arrived

Flight Plot

Page will automatically refresh every two minutes.

Flight plan parsing failed; only flown route is shown


Map Options




Map Legend


Flown Route
Filed Route
Departure Airport
Arrival Airport
Navaid (VOR, NDB)
Fix

Horizontal Profiles

Position Reports

Time Latitude Longitude Heading Altitude Ground
Speed
28-Oct-20 10:58 33.425569 -112.022346 89 1112ft 0kts
28-Oct-20 10:59 33.425569 -112.022346 89 1112ft 0kts
28-Oct-20 11:00 33.425569 -112.022346 89 1112ft 0kts
28-Oct-20 11:01 33.425689 -112.022322 17 1112ft 2kts
28-Oct-20 11:02 33.427011 -112.021110 348 1115ft 7kts
28-Oct-20 11:03 33.427763 -112.025523 269 1114ft 19kts
28-Oct-20 11:04 33.428037 -112.026949 340 1114ft 7kts
28-Oct-20 11:05 33.428873 -112.017600 92 1166ft 110kts
28-Oct-20 11:06 33.410185 -112.003203 240 2549ft 146kts
28-Oct-20 11:07 33.389664 -112.051026 240 3380ft 177kts
28-Oct-20 11:08 33.366024 -112.104760 240 4044ft 182kts
28-Oct-20 11:09 33.342722 -112.155466 240 5227ft 169kts
28-Oct-20 11:10 33.318900 -112.204156 240 6049ft 185kts
28-Oct-20 11:11 33.318225 -112.263295 290 6045ft 193kts
28-Oct-20 11:12 33.333386 -112.325150 290 6045ft 192kts
28-Oct-20 11:13 33.348267 -112.386176 290 6045ft 191kts
28-Oct-20 11:14 33.363158 -112.447352 290 6045ft 191kts
28-Oct-20 11:15 33.378041 -112.508638 289 6045ft 192kts
28-Oct-20 11:16 33.392925 -112.570101 289 6045ft 192kts
28-Oct-20 11:17 33.407801 -112.631656 290 6045ft 192kts
28-Oct-20 11:18 33.422628 -112.691697 289 6355ft 181kts
28-Oct-20 11:19 33.436335 -112.749090 289 6849ft 177kts
28-Oct-20 11:20 33.449508 -112.805922 289 7263ft 181kts
28-Oct-20 11:21 33.472026 -112.865923 304 6545ft 196kts
28-Oct-20 11:22 33.499543 -112.920802 303 6547ft 190kts
28-Oct-20 11:23 33.526077 -112.975348 302 6548ft 189kts
28-Oct-20 11:24 33.552427 -113.030079 302 6548ft 189kts
28-Oct-20 11:25 33.578781 -113.085073 302 6548ft 190kts
28-Oct-20 11:26 33.605127 -113.140165 302 6547ft 190kts
28-Oct-20 11:27 33.631455 -113.195302 302 6529ft 190kts
28-Oct-20 11:28 33.657706 -113.250362 302 6529ft 190kts
28-Oct-20 11:29 33.683946 -113.305479 302 6529ft 190kts
28-Oct-20 11:30 33.710207 -113.360727 302 6529ft 190kts
28-Oct-20 11:31 33.736436 -113.415987 302 6529ft 190kts
28-Oct-20 11:32 33.762622 -113.471243 302 6529ft 190kts
28-Oct-20 11:33 33.788780 -113.526529 302 6529ft 190kts
28-Oct-20 11:34 33.814853 -113.581745 302 6528ft 190kts
28-Oct-20 11:35 33.841061 -113.637316 302 6527ft 191kts
28-Oct-20 11:36 33.867222 -113.693640 302 6524ft 193kts
28-Oct-20 11:37 33.893829 -113.750631 302 6521ft 196kts
28-Oct-20 11:38 33.920809 -113.808182 301 6520ft 199kts
28-Oct-20 11:39 33.948150 -113.866561 301 6520ft 200kts
28-Oct-20 11:40 33.975436 -113.924877 301 6520ft 200kts
28-Oct-20 11:41 34.002748 -113.983309 301 6520ft 200kts
28-Oct-20 11:42 34.030028 -114.041755 301 6520ft 199kts
28-Oct-20 11:43 34.057186 -114.100051 301 6520ft 199kts
28-Oct-20 11:44 34.085796 -114.157655 316 6365ft 203kts
28-Oct-20 11:45 34.127828 -114.213298 319 4500ft 216kts
28-Oct-20 11:46 34.127077 -114.262440 228 3132ft 123kts
28-Oct-20 11:47 34.144623 -114.270980 29 480ft 93kts
28-Oct-20 11:48 34.151856 -114.269359 296 453ft 12kts
28-Oct-20 11:49 34.152504 -114.271536 299 451ft 0kts
28-Oct-20 11:50 34.152504 -114.271536 299 451ft 0kts

Navigation Log

Ident Type
Flight plan parsing failed, navigation log unavailable